Latest Weather Observations for Ocean Reef

IDW60901

Issued at 2:51 pm WST Friday 27 March 2015 (issued every 10 minutes, with the page automatically refreshed every 10 minutes)

About weather observations | Map of Perth area stations | Latest observations for Perth area | Other Formats
Station Details ID: 009214 Name: OCEAN REEF Lat: -31.76 Lon: 115.73 Height: 10.0 m
Data from the previous 72 hours. | See also: Recent months for locations in Western Australia
Date/Time
WST
Tmp

°C
App
Tmp
°C
Dew
Point
°C
Rel
Hum
%
Delta-T

°C
Wind Press
QNH
hPa
Press
MSL
hPa
Rain
since
9 am
mm
Dir
 
Spd
km/h
Gust
km/h
Spd
kts
Gust
kts
27/02:30pm - - - - - SSW 28 32 15 17 - - -
27/02:00pm - - - - - SSW 24 28 13 15 - - -
27/01:30pm - - - - - SSW 22 28 12 15 - - -
27/01:00pm - - - - - SW 24 28 13 15 - - -
27/12:30pm - - - - - SW 20 24 11 13 - - -
27/12:00pm - - - - - SW 17 19 9 10 - - -
27/11:30am - - - - - SW 19 20 10 11 - - -
27/11:00am - - - - - SW 15 17 8 9 - - -
27/10:30am - - - - - SW 13 13 7 7 - - -
27/10:00am - - - - - ENE 7 11 4 6 - - -
27/09:30am - - - - - ENE 15 20 8 11 - - -
27/09:00am - - - - - ENE 17 24 9 13 - - -
27/08:30am - - - - - E 17 28 9 15 - - -
27/08:00am - - - - - ENE 19 30 10 16 - - -
27/07:30am - - - - - ENE 15 20 8 11 - - -
27/07:00am - - - - - E 17 22 9 12 - - -
27/06:30am - - - - - E 19 24 10 13 - - -
27/06:00am - - - - - E 17 22 9 12 - - -
27/05:30am - - - - - E 17 24 9 13 - - -
27/05:00am - - - - - E 17 20 9 11 - - -
27/04:30am - - - - - E 17 24 9 13 - - -
27/04:00am - - - - - ENE 19 26 10 14 - - -
27/03:30am - - - - - E 15 20 8 11 - - -
27/03:00am - - - - - ENE 13 19 7 10 - - -
27/02:30am - - - - - E 11 15 6 8 - - -
27/02:00am - - - - - ESE 11 15 6 8 - - -
27/01:30am - - - - - ESE 13 17 7 9 - - -
27/01:00am - - - - - ESE 13 19 7 10 - - -
27/12:30am - - - - - SE 13 20 7 11 - - -
27/12:00am - - - - - ESE 19 24 10 13 - - -
 
Date/Time
WST
Tmp

°C
App
Tmp
°C
Dew
Point
°C
Rel
Hum
%
Delta-T

°C
Wind Press
QNH
hPa
Press
MSL
hPa
Rain
since
9 am
mm
Dir
 
Spd
km/h
Gust
km/h
Spd
kts
Gust
kts
26/11:30pm - - - - - E 19 24 10 13 - - -
26/11:00pm - - - - - E 13 17 7 9 - - -
26/10:30pm - - - - - ESE 17 24 9 13 - - -
26/10:00pm - - - - - ESE 13 15 7 8 - - -
26/09:30pm - - - - - E 17 26 9 14 - - -
26/09:00pm - - - - - ESE 17 20 9 11 - - -
26/08:30pm - - - - - SSE 2 7 1 4 - - -
26/08:00pm - - - - - ESE 7 11 4 6 - - -
26/07:30pm - - - - - NNW 7 13 4 7 - - -
26/07:00pm - - - - - NE 4 7 2 4 - - -
26/06:30pm - - - - - NE 9 11 5 6 - - -
26/06:00pm - - - - - NE 11 13 6 7 - - -
26/05:30pm - - - - - ENE 19 28 10 15 - - -
26/05:00pm - - - - - NE 15 20 8 11 - - -
26/04:30pm - - - - - NE 9 13 5 7 - - -
26/04:00pm - - - - - NNE 30 43 16 23 - - -
26/03:50pm - - - - - NNE 28 44 15 24 - - -
26/03:30pm - - - - - NNE 13 22 7 12 - - -
26/03:00pm - - - - - NE 19 30 10 16 - - -
26/02:30pm - - - - - ENE 20 30 11 16 - - -
26/02:00pm - - - - - ENE 20 32 11 17 - - -
26/01:30pm - - - - - NE 22 33 12 18 - - -
26/01:00pm - - - - - NE 22 35 12 19 - - -
26/12:30pm - - - - - NE 26 37 14 20 - - -
26/12:00pm - - - - - ENE 26 37 14 20 - - -
26/11:30am - - - - - ENE 24 35 13 19 - - -
26/11:00am - - - - - ENE 26 41 14 22 - - -
26/10:44am - - - - - ENE 32 48 17 26 - - -
26/10:30am - - - - - ENE 30 43 16 23 - - -
26/10:17am - - - - - ENE 30 48 16 26 - - -
26/10:00am - - - - - NE 30 41 16 22 - - -
26/09:30am - - - - - ENE 32 54 17 29 - - -
26/09:11am - - - - - ENE 32 50 17 27 - - -
26/09:00am - - - - - ENE 32 48 17 26 - - -
26/08:47am - - - - - ENE 32 50 17 27 - - -
26/08:30am - - - - - ENE 32 44 17 24 - - -
26/08:00am - - - - - ENE 28 39 15 21 - - -
26/07:49am - - - - - ENE 30 48 16 26 - - -
26/07:30am - - - - - E 30 41 16 22 - - -
26/07:00am - - - - - E 28 41 15 22 - - -
26/06:32am - - - - - ENE 30 48 16 26 - - -
26/06:30am - - - - - ENE 32 48 17 26 - - -
26/06:00am - - - - - E 30 48 16 26 - - -
26/05:30am - - - - - ENE 32 57 17 31 - - -
26/05:25am - - - - - ENE 32 57 17 31 - - -
26/05:00am - - - - - ENE 28 43 15 23 - - -
26/04:46am - - - - - ENE 30 48 16 26 - - -
26/04:30am - - - - - ENE 28 43 15 23 - - -
26/04:00am - - - - - E 28 39 15 21 - - -
26/03:30am - - - - - E 24 39 13 21 - - -
26/03:00am - - - - - E 24 39 13 21 - - -
26/02:30am - - - - - E 26 39 14 21 - - -
26/02:00am - - - - - E 26 37 14 20 - - -
26/01:30am - - - - - E 24 35 13 19 - - -
26/01:00am - - - - - ESE 26 41 14 22 - - -
26/12:30am - - - - - ESE 28 39 15 21 - - -
26/12:00am - - - - - ESE 26 37 14 20 - - -
 
Date/Time
WST
Tmp

°C
App
Tmp
°C
Dew
Point
°C
Rel
Hum
%
Delta-T

°C
Wind Press
QNH
hPa
Press
MSL
hPa
Rain
since
9 am
mm
Dir
 
Spd
km/h
Gust
km/h
Spd
kts
Gust
kts
25/11:30pm - - - - - ESE 22 32 12 17 - - -
25/11:00pm - - - - - ESE 20 32 11 17 - - -
25/10:30pm - - - - - SE 17 22 9 12 - - -
25/10:00pm - - - - - SE 15 22 8 12 - - -
25/09:30pm - - - - - ESE 17 24 9 13 - - -
25/09:00pm - - - - - SE 15 19 8 10 - - -
25/08:30pm - - - - - SE 15 22 8 12 - - -
25/08:00pm - - - - - SE 13 19 7 10 - - -
25/07:30pm - - - - - SE 15 19 8 10 - - -
25/07:00pm - - - - - SE 13 19 7 10 - - -
25/06:30pm - - - - - ESE 15 24 8 13 - - -
25/06:00pm - - - - - ESE 20 32 11 17 - - -
25/05:30pm - - - - - ESE 22 33 12 18 - - -
25/05:00pm - - - - - ESE 19 28 10 15 - - -
25/04:30pm - - - - - E 17 24 9 13 - - -
25/04:00pm - - - - - ESE 15 26 8 14 - - -
25/03:30pm - - - - - E 19 35 10 19 - - -
25/03:00pm - - - - - E 20 32 11 17 - - -
25/02:30pm - - - - - ESE 17 30 9 16 - - -
25/02:00pm - - - - - ESE 17 30 9 16 - - -
25/01:30pm - - - - - ENE 13 24 7 13 - - -
25/01:00pm - - - - - E 20 30 11 16 - - -
25/12:30pm - - - - - E 17 30 9 16 - - -
25/12:00pm - - - - - ENE 19 28 10 15 - - -
25/11:30am - - - - - E 22 30 12 16 - - -
25/11:00am - - - - - E 26 37 14 20 - - -
25/10:30am - - - - - E 24 33 13 18 - - -
25/10:00am - - - - - ENE 32 41 17 22 - - -
25/09:30am - - - - - E 28 41 15 22 - - -
25/09:15am - - - - - E 28 46 15 25 - - -
25/09:00am - - - - - ENE 32 46 17 25 - - -
25/08:56am - - - - - ENE 28 46 15 25 - - -
25/08:30am - - - - - E 26 37 14 20 - - -
25/08:00am - - - - - E 24 35 13 19 - - -
25/07:30am - - - - - E 24 35 13 19 - - -
25/07:00am - - - - - E 26 37 14 20 - - -
25/06:30am - - - - - E 28 39 15 21 - - -
25/06:00am - - - - - E 26 37 14 20 - - -
25/05:30am - - - - - E 26 37 14 20 - - -
25/05:00am - - - - - E 26 33 14 18 - - -
25/04:30am - - - - - E 30 41 16 22 - - -
25/04:00am - - - - - E 26 37 14 20 - - -
25/03:30am - - - - - E 24 33 13 18 - - -
25/03:00am - - - - - E 28 37 15 20 - - -
25/02:30am - - - - - E 28 37 15 20 - - -
25/02:00am - - - - - ESE 24 33 13 18 - - -
25/01:30am - - - - - ESE 26 39 14 21 - - -
25/01:00am - - - - - ESE 22 33 12 18 - - -
25/12:30am - - - - - SE 19 28 10 15 - - -
25/12:00am - - - - - SE 11 15 6 8 - - -
 
Date/Time
WST
Tmp

°C
App
Tmp
°C
Dew
Point
°C
Rel
Hum
%
Delta-T

°C
Wind Press
QNH
hPa
Press
MSL
hPa
Rain
since
9 am
mm
Dir
 
Spd
km/h
Gust
km/h
Spd
kts
Gust
kts
24/11:30pm - - - - - SE 13 15 7 8 - - -
24/11:00pm - - - - - SE 15 19 8 10 - - -
24/10:30pm - - - - - SSE 13 19 7 10 - - -
24/10:00pm - - - - - SSE 15 19 8 10 - - -
24/09:30pm - - - - - SSE 15 19 8 10 - - -
24/09:00pm - - - - - SSE 13 17 7 9 - - -
24/08:30pm - - - - - SSE 24 30 13 16 - - -
24/08:00pm - - - - - S 32 46 17 25 - - -
24/07:30pm - - - - - S 39 52 21 28 - - -
24/07:00pm - - - - - S 46 54 25 29 - - -
24/06:30pm - - - - - S 43 54 23 29 - - -
24/06:00pm - - - - - S 43 52 23 28 - - -
24/05:30pm - - - - - S 41 50 22 27 - - -
24/05:00pm - - - - - SSW 43 50 23 27 - - -
24/04:30pm - - - - - SSW 41 48 22 26 - - -
24/04:00pm - - - - - SSW 39 48 21 26 - - -
24/03:30pm - - - - - SSW 39 48 21 26 - - -
24/03:00pm - - - - - SSW 37 44 20 24 - - -

Latest Capital City Observations: Canberra | Sydney | Melbourne | Brisbane | Adelaide | Perth | Hobart | Darwin

Other Formats:

Comma delimited format used in spreadsheet applications
http://www.bom.gov.au/fwo/IDW60901/IDW60901.94607.axf

JavaScript Object Notation format (JSON) in row-major order
http://www.bom.gov.au/fwo/IDW60901/IDW60901.94607.json